ADDS METAR Data INFO
IDs: Format: Raw Decoded Include TAF

Data at: 1317 UTC 11 Dec 2017

KAUN 111255Z AUTO 09003KT 10SM CLR 09/M06 A3030 RMK AO1
KAUN 111235Z AUTO 10005KT 10SM CLR 09/M06 A3030 RMK AO1
KAUN 111215Z AUTO 10006KT 10SM CLR 11/M06 A3030 RMK AO1
KAUN 111155Z AUTO 10006KT 10SM CLR 09/M06 A3030 RMK AO1
KAUN 111135Z AUTO 10006KT 10SM CLR 09/M05 A3030 RMK AO1
KAUN 111115Z AUTO 10007KT 10SM CLR 10/M05 A3030 RMK AO1
KAUN 111055Z AUTO 11008KT 10SM CLR 11/M05 A3030 RMK AO1
KAUN 111035Z AUTO 10008KT 10SM CLR 10/M05 A3030 RMK AO1
KAUN 111015Z AUTO 11007KT 10SM CLR 09/M03 A3030 RMK AO1
KAUN 110955Z AUTO 10006KT 10SM CLR 09/M04 A3030 RMK AO1
KAUN 110935Z AUTO 10007KT 10SM CLR 10/M03 A3029 RMK AO1
KAUN 110915Z AUTO 11007KT 10SM CLR 10/M03 A3029 RMK AO1
KAUN 110855Z AUTO 10005KT 10SM CLR 10/M02 A3029 RMK AO1
KAUN 110835Z AUTO 10006KT 10SM CLR 09/M01 A3028 RMK AO1
KAUN 110815Z AUTO 11007KT 10SM CLR 09/00 A3028 RMK AO1
KAUN 110755Z AUTO 11007KT 10SM CLR 09/00 A3028 RMK AO1
KAUN 110735Z AUTO 10004KT 10SM CLR 09/00 A3028 RMK AO1
KAUN 110715Z AUTO 13003KT 10SM CLR 07/01 A3028 RMK AO1
KAUN 110655Z AUTO 10004KT 10SM CLR 07/02 A3028 RMK AO1
KAUN 110635Z AUTO 00000KT 10SM CLR 06/02 A3028 RMK AO1
KAUN 110615Z AUTO 00000KT 10SM CLR 05/03 A3027 RMK AO1
KAUN 110555Z AUTO 00000KT 10SM CLR 05/02 A3026 RMK AO1
KAUN 110535Z AUTO 00000KT 10SM CLR 07/03 A3026 RMK AO1
KAUN 110515Z AUTO 00000KT 10SM CLR 08/03 A3025 RMK AO1
KAUN 110455Z AUTO 00000KT 10SM CLR 08/03 A3025 RMK AO1
KAUN 110435Z AUTO 00000KT 10SM CLR 07/03 A3025 RMK AO1
KAUN 110415Z AUTO 10003KT 10SM CLR 10/03 A3024 RMK AO1
KAUN 110355Z AUTO 10003KT 10SM CLR 08/04 A3024 RMK AO1
KAUN 110335Z AUTO 00000KT 10SM CLR 08/03 A3024 RMK AO1
KAUN 110315Z AUTO 10003KT 10SM CLR 10/04 A3024 RMK AO1
KAUN 110255Z AUTO 10004KT 10SM CLR 13/05 A3025 RMK AO1
KAUN 110235Z AUTO 10007KT 10SM CLR 09/04 A3024 RMK AO1
KAUN 110215Z AUTO 00000KT 10SM CLR 09/04 A3024 RMK AO1
KAUN 110155Z AUTO 00000KT 10SM CLR 08/04 A3024 RMK AO1
KAUN 110135Z AUTO 00000KT 10SM CLR 07/04 A3024 RMK AO1
KAUN 110115Z AUTO 00000KT 10SM CLR 08/04 A3025 RMK AO1
KAUN 110055Z AUTO 00000KT 10SM CLR 10/05 A3025 RMK AO1
KAUN 110035Z AUTO 00000KT 10SM CLR 12/04 A3025 RMK AO1
KAUN 110015Z AUTO 00000KT 10SM CLR 16/05 A3025 RMK AO1
KAUN 102355Z AUTO 00000KT 10SM CLR 16/05 A3025 RMK AO1
KAUN 102335Z AUTO 00000KT 10SM CLR 17/05 A3025 RMK AO1
KAUN 102315Z AUTO 00000KT 10SM CLR 17/05 A3025 RMK AO1
KAUN 102255Z AUTO 00000KT 10SM CLR 17/05 A3025 RMK AO1
KAUN 102235Z AUTO 27003KT 10SM CLR 18/05 A3025 RMK AO1
KAUN 102215Z AUTO 27003KT 10SM CLR 18/04 A3026 RMK AO1
KAUN 102155Z AUTO 29004KT 10SM CLR 18/04 A3026 RMK AO1
KAUN 102135Z AUTO 29003KT 10SM CLR 18/03 A3026 RMK AO1
KAUN 102115Z AUTO 29004KT 10SM CLR 18/03 A3027 RMK AO1
KAUN 102055Z AUTO 00000KT 10SM CLR 19/00 A3028 RMK AO1
KAUN 102035Z AUTO 00000KT 10SM CLR 19/00 A3029 RMK AO1
KAUN 102015Z AUTO 00000KT 10SM CLR 18/M01 A3030 RMK AO1
KAUN 101955Z AUTO 00000KT 10SM CLR 18/M02 A3031 RMK AO1
KAUN 101935Z AUTO 00000KT 10SM CLR 17/M02 A3032 RMK AO1
KAUN 101915Z AUTO 00000KT 10SM CLR 17/M02 A3032 RMK AO1
KAUN 101855Z AUTO 00000KT 10SM CLR 16/M02 A3033 RMK AO1
KAUN 101835Z AUTO 00000KT 10SM CLR 16/M02 A3034 RMK AO1
KAUN 101815Z AUTO 12004KT 10SM CLR 16/M04 A3034 RMK AO1
KAUN 101755Z AUTO 00000KT 10SM CLR 14/M02 A3033 RMK AO1
KAUN 101735Z AUTO 00000KT 10SM CLR 14/M02 A3033 RMK AO1
KAUN 101715Z AUTO 00000KT 10SM CLR 13/M02 A3032 RMK AO1
KAUN 101655Z AUTO 00000KT 10SM CLR 12/M02 A3032 RMK AO1
KAUN 101635Z AUTO 00000KT 10SM CLR 10/M03 A3032 RMK AO1
KAUN 101615Z AUTO 00000KT 10SM CLR 09/M02 A3031 RMK AO1
KAUN 101555Z AUTO 11003KT 10SM CLR 07/M03 A3030 RMK AO1
KAUN 101535Z AUTO 00000KT 10SM CLR 07/M04 A3030 RMK AO1
KAUN 101515Z AUTO 09004KT 10SM CLR 09/M05 A3030 RMK AO1
KAUN 101455Z AUTO 00000KT 10SM CLR 08/M05 A3030 RMK AO1
KAUN 101435Z AUTO 11004KT 10SM CLR 09/M05 A3029 RMK AO1
KAUN 101415Z AUTO 11004KT 10SM CLR 08/M05 A3029 RMK AO1
KAUN 101355Z AUTO 12004KT 10SM CLR 10/M05 A3029 RMK AO1
KAUN 101335Z AUTO 11006KT 10SM CLR 09/M04 A3029 RMK AO1
KAUN 101315Z AUTO 12004KT 10SM CLR 09/M04 A3029 RMK AO1
KAUN 101255Z AUTO 11005KT 10SM CLR 09/M03 A3029 RMK AO1
KAUN 101235Z AUTO 10005KT 10SM CLR 07/M03 A3029 RMK AO1
KAUN 101215Z AUTO 00000KT 10SM CLR 08/M03 A3030 RMK AO1
KAUN 101155Z AUTO 09003KT 10SM CLR 07/M02 A3030 RMK AO1
KAUN 101135Z AUTO 10003KT 10SM CLR 07/M02 A3030 RMK AO1
KAUN 101115Z AUTO 00000KT 10SM CLR 08/M02 A3031 RMK AO1
KAUN 101055Z AUTO 11004KT 10SM CLR 09/M02 A3031 RMK AO1
KAUN 101035Z AUTO 10004KT 10SM CLR 09/M02 A3031 RMK AO1
KAUN 101015Z AUTO 11006KT 10SM CLR 10/M02 A3031 RMK AO1
KAUN 100955Z AUTO 09004KT 10SM CLR 10/M02 A3031 RMK AO1
KAUN 100935Z AUTO 10006KT 10SM CLR 09/M01 A3031 RMK AO1
KAUN 100915Z AUTO 11006KT 10SM CLR 08/00 A3031 RMK AO1
KAUN 100855Z AUTO 12003KT 10SM CLR 08/00 A3031 RMK AO1
KAUN 100835Z AUTO 12004KT 10SM CLR 09/00 A3031 RMK AO1
KAUN 100815Z AUTO 10003KT 10SM CLR 09/00 A3031 RMK AO1
KAUN 100755Z AUTO 10005KT 10SM CLR 09/01 A3031 RMK AO1
KAUN 100735Z AUTO 10005KT 10SM CLR 09/02 A3031 RMK AO1
KAUN 100715Z AUTO 00000KT 10SM CLR 08/02 A3031 RMK AO1
KAUN 100655Z AUTO 00000KT 10SM CLR 08/03 A3031 RMK AO1
KAUN 100635Z AUTO 10004KT 10SM CLR 07/03 A3030 RMK AO1
KAUN 100615Z AUTO 00000KT 10SM CLR 05/03 A3030 RMK AO1
KAUN 100555Z AUTO 00000KT 10SM CLR 07/04 A3030 RMK AO1
KAUN 100535Z AUTO 00000KT 10SM CLR 06/04 A3030 RMK AO1
KAUN 100515Z AUTO 00000KT 10SM CLR 06/04 A3030 RMK AO1
KAUN 100455Z AUTO 00000KT 10SM CLR 06/03 A3030 RMK AO1
KAUN 100435Z AUTO 00000KT 10SM CLR 07/04 A3029 RMK AO1
KAUN 100415Z AUTO 00000KT 10SM CLR 05/03 A3030 RMK AO1
KAUN 100355Z AUTO 00000KT 10SM CLR 07/04 A3030 RMK AO1
KAUN 100335Z AUTO 00000KT 10SM CLR 06/04 A3030 RMK AO1
KAUN 100315Z AUTO 00000KT 10SM CLR 07/04 A3030 RMK AO1
KAUN 100255Z AUTO 00000KT 10SM CLR 08/04 A3030 RMK AO1
KAUN 100235Z AUTO 00000KT 10SM CLR 09/04 A3029 RMK AO1
KAUN 100215Z AUTO 11003KT 10SM CLR 12/05 A3029 RMK AO1
KAUN 100155Z AUTO 11004KT 10SM CLR 11/04 A3029 RMK AO1
KAUN 100135Z AUTO 00000KT 10SM CLR 08/04 A3029 RMK AO1